CheckWX is a tool to help pilots better visualize weather data.  It is not intended as a substitute for an official pre-flight weather briefing.

16:55:53 UTC

KPGA TAF
Page Municipal Airport
Page, Arizona, USA
KPGA 181120Z 1812/1912 VRB06KT P6SM FEW100 SCT150

Jun-18@
12:00 UTC

Jun-18 @ 12:00 UTC

Jun-19@
12:00 UTC

Jun-19 @ 12:00 UTC

KPGA 181120Z 1812/1912 VRB06KT P6SM FEW100 SCT150
Wind
  • Variable at 6 KTS
Cloud Levels
  • Few at 10,000' AGL
  • Scattered at 15,000' AGL